createdAt,value
2022-09-11T00:01:51.651Z,25.75
2022-09-11T00:04:17.960Z,25.75
2022-09-11T00:06:44.311Z,25.76
2022-09-11T00:09:10.655Z,25.75
2022-09-11T00:11:36.997Z,25.76
2022-09-11T00:14:03.334Z,25.76
2022-09-11T00:16:29.749Z,25.75
2022-09-11T00:18:56.021Z,25.74
2022-09-11T00:21:22.362Z,25.75
2022-09-11T00:23:48.695Z,25.75
2022-09-11T00:26:15.043Z,25.75
2022-09-11T00:28:41.386Z,25.76
2022-09-11T00:31:07.791Z,25.74
2022-09-11T00:33:34.076Z,25.74
2022-09-11T00:36:00.498Z,25.75
2022-09-11T00:38:26.839Z,25.75
2022-09-11T00:40:53.184Z,25.74
2022-09-11T00:43:19.525Z,25.74
2022-09-11T00:45:45.889Z,25.75
2022-09-11T00:48:12.201Z,25.74
2022-09-11T00:50:38.546Z,25.73
2022-09-11T00:53:04.892Z,25.74
2022-09-11T00:55:31.248Z,25.74
2022-09-11T00:57:57.595Z,25.73
2022-09-11T01:00:23.932Z,25.74
2022-09-11T01:02:50.295Z,25.73
2022-09-11T01:05:16.711Z,25.75
2022-09-11T01:07:43.054Z,25.73
2022-09-11T01:10:09.406Z,25.73
2022-09-11T01:12:35.749Z,25.73
2022-09-11T01:15:02.100Z,25.75
2022-09-11T01:17:28.442Z,25.73
2022-09-11T01:19:54.798Z,25.73
2022-09-11T01:22:21.152Z,25.72
2022-09-11T01:24:47.544Z,25.73
2022-09-11T01:27:13.892Z,25.73
2022-09-11T01:29:40.237Z,25.72
2022-09-11T01:32:06.580Z,25.71
2022-09-11T01:34:32.923Z,25.70
2022-09-11T01:36:59.260Z,25.71
2022-09-11T01:39:25.607Z,25.72
2022-09-11T01:41:52.016Z,25.71
2022-09-11T01:44:18.391Z,25.71
2022-09-11T01:46:44.725Z,25.71
2022-09-11T01:49:11.076Z,25.69
2022-09-11T01:51:37.417Z,25.70
2022-09-11T01:54:03.759Z,25.69
2022-09-11T01:56:30.114Z,25.68
2022-09-11T01:58:56.440Z,25.69
2022-09-11T02:01:22.787Z,25.69
2022-09-11T02:03:51.318Z,25.68
2022-09-11T02:06:17.665Z,25.69
2022-09-11T02:08:44.014Z,25.69
2022-09-11T02:11:10.351Z,25.68
2022-09-11T02:13:36.706Z,25.68
2022-09-11T02:16:03.053Z,25.69
2022-09-11T02:18:30.732Z,25.68
2022-09-11T02:20:55.710Z,25.67
2022-09-11T02:23:22.050Z,25.68
2022-09-11T02:25:48.384Z,25.68
2022-09-11T02:28:14.730Z,25.67
2022-09-11T02:30:41.077Z,25.68
2022-09-11T02:33:07.423Z,25.69
2022-09-11T02:35:33.750Z,25.67
2022-09-11T02:38:00.097Z,25.67
2022-09-11T02:40:26.433Z,25.67
2022-09-11T02:42:52.812Z,25.66
2022-09-11T02:45:19.237Z,25.66
2022-09-11T02:47:45.493Z,25.66
2022-09-11T02:50:11.831Z,25.67
2022-09-11T02:52:38.177Z,25.65
2022-09-11T02:55:04.516Z,25.66
2022-09-11T02:57:30.887Z,25.66
2022-09-11T02:59:57.236Z,25.64
2022-09-11T03:02:23.656Z,25.65
2022-09-11T03:04:49.922Z,25.65
2022-09-11T03:07:16.269Z,25.65
2022-09-11T03:09:42.645Z,25.65
2022-09-11T03:12:08.994Z,25.63
2022-09-11T03:14:35.323Z,25.65
2022-09-11T03:17:01.708Z,25.63
2022-09-11T03:19:28.046Z,25.63
2022-09-11T03:21:54.385Z,25.64
2022-09-11T03:24:20.728Z,25.64
2022-09-11T03:26:47.106Z,25.63
2022-09-11T03:29:13.456Z,25.64
2022-09-11T03:31:40.971Z,25.62
2022-09-11T03:34:07.283Z,25.63
2022-09-11T03:36:33.687Z,25.61
2022-09-11T03:39:00.025Z,25.61
2022-09-11T03:41:26.379Z,25.62
2022-09-11T03:43:52.731Z,25.62
2022-09-11T03:46:19.082Z,25.61
2022-09-11T03:48:45.428Z,25.62
2022-09-11T03:51:11.779Z,25.62
2022-09-11T03:53:38.123Z,25.62
2022-09-11T03:56:04.468Z,25.59
2022-09-11T03:58:30.804Z,25.60
2022-09-11T04:00:57.204Z,25.61
2022-09-11T04:03:23.483Z,25.60
2022-09-11T04:05:49.831Z,25.59
2022-09-11T04:08:16.162Z,25.60
2022-09-11T04:10:42.510Z,25.59
2022-09-11T04:13:08.891Z,25.58
2022-09-11T04:15:35.240Z,25.59
2022-09-11T04:18:05.437Z,25.58
2022-09-11T04:20:27.926Z,25.58
2022-09-11T04:22:54.264Z,25.58
2022-09-11T04:25:20.605Z,25.57
2022-09-11T04:27:46.946Z,25.57
2022-09-11T04:30:13.291Z,25.57
2022-09-11T04:32:39.657Z,25.58
2022-09-11T04:35:06.005Z,25.57
2022-09-11T04:37:32.345Z,25.58
2022-09-11T04:39:58.782Z,25.57
2022-09-11T04:42:25.095Z,25.58
2022-09-11T04:44:51.463Z,25.57
2022-09-11T04:47:17.834Z,25.58
2022-09-11T04:49:44.180Z,25.58
2022-09-11T04:52:10.543Z,25.59
2022-09-11T04:54:36.906Z,25.57
2022-09-11T04:57:03.230Z,25.58
2022-09-11T04:59:29.585Z,25.59
2022-09-11T05:01:55.963Z,25.59
2022-09-11T05:04:25.978Z,25.59
2022-09-11T05:06:48.608Z,25.59
2022-09-11T05:09:14.996Z,25.60
2022-09-11T05:11:41.341Z,25.59
2022-09-11T05:14:07.681Z,25.60
2022-09-11T05:16:34.084Z,25.61
2022-09-11T05:19:00.370Z,25.61
2022-09-11T05:21:26.708Z,25.61
2022-09-11T05:23:53.052Z,25.62
2022-09-11T05:26:19.403Z,25.62
2022-09-11T05:28:45.753Z,25.63
2022-09-11T05:31:12.117Z,25.64
2022-09-11T05:33:38.528Z,25.64
2022-09-11T05:36:04.796Z,25.64
2022-09-11T05:38:31.142Z,25.64
2022-09-11T05:40:57.477Z,25.66
2022-09-11T05:43:23.852Z,25.66
2022-09-11T05:45:50.220Z,25.68
2022-09-11T05:48:17.103Z,25.68
2022-09-11T05:50:43.444Z,25.69
2022-09-11T05:53:09.809Z,25.69
2022-09-11T05:55:36.156Z,25.70
2022-09-11T05:58:02.498Z,25.70
2022-09-11T06:00:28.836Z,25.72
2022-09-11T06:02:55.201Z,25.70
2022-09-11T06:05:21.638Z,25.72
2022-09-11T06:07:47.983Z,25.73
2022-09-11T06:10:14.317Z,25.74
2022-09-11T06:12:40.662Z,25.73
2022-09-11T06:15:07.009Z,25.73
2022-09-11T06:17:33.359Z,25.74
2022-09-11T06:19:59.696Z,25.73
2022-09-11T06:22:26.043Z,25.75
2022-09-11T06:24:52.384Z,25.75
2022-09-11T06:27:18.736Z,25.75
2022-09-11T06:29:45.096Z,25.77
2022-09-11T06:32:11.425Z,25.76
2022-09-11T06:34:37.762Z,25.75
2022-09-11T06:37:04.133Z,25.78
2022-09-11T06:39:30.475Z,25.78
2022-09-11T06:41:56.849Z,25.79
2022-09-11T06:44:23.187Z,25.79
2022-09-11T06:46:49.562Z,25.80
2022-09-11T06:49:15.901Z,25.80
2022-09-11T06:51:42.247Z,25.81
2022-09-11T06:54:08.595Z,25.84
2022-09-11T06:56:34.966Z,25.83
2022-09-11T06:59:01.306Z,25.84
2022-09-11T07:01:29.915Z,25.86
2022-09-11T07:03:56.175Z,25.86
2022-09-11T07:06:22.508Z,25.86
2022-09-11T07:08:48.849Z,25.88
2022-09-11T07:11:15.202Z,25.88
2022-09-11T07:13:41.633Z,25.90
2022-09-11T07:16:07.967Z,25.91
2022-09-11T07:18:34.261Z,25.92
2022-09-11T07:21:00.612Z,25.92
2022-09-11T07:23:26.948Z,25.94
2022-09-11T07:25:53.299Z,25.96
2022-09-11T07:28:19.644Z,25.96
2022-09-11T07:30:46.025Z,25.96
2022-09-11T07:33:12.330Z,25.98
2022-09-11T07:35:38.684Z,25.99
2022-09-11T07:38:05.021Z,25.99
2022-09-11T07:40:31.370Z,26.02
2022-09-11T07:42:57.696Z,26.03
2022-09-11T07:45:24.040Z,26.06
2022-09-11T07:47:50.387Z,26.04
2022-09-11T07:50:16.734Z,26.04
2022-09-11T07:52:44.279Z,26.05
2022-09-11T07:55:09.469Z,26.06
2022-09-11T07:57:35.806Z,26.07
2022-09-11T08:00:02.154Z,26.06
2022-09-11T08:02:28.532Z,26.06
2022-09-11T08:04:54.839Z,26.09
2022-09-11T08:07:21.185Z,26.12
2022-09-11T08:09:52.839Z,26.10
2022-09-11T08:12:13.898Z,26.15
2022-09-11T08:14:40.263Z,26.16
2022-09-11T08:17:06.562Z,26.17
2022-09-11T08:19:32.947Z,26.16
2022-09-11T08:21:59.278Z,26.20
2022-09-11T08:24:25.627Z,26.20
2022-09-11T08:26:51.976Z,26.19
2022-09-11T08:29:18.362Z,26.20
2022-09-11T08:31:44.656Z,26.21
2022-09-11T08:34:11.000Z,26.23
2022-09-11T08:36:37.346Z,26.25
2022-09-11T08:39:03.688Z,26.24
2022-09-11T08:41:30.039Z,26.25
2022-09-11T08:43:56.378Z,26.26
2022-09-11T08:46:22.723Z,26.28
2022-09-11T08:48:49.063Z,26.30
2022-09-11T08:51:15.407Z,26.30
2022-09-11T08:53:41.858Z,26.30
2022-09-11T08:56:08.099Z,26.31
2022-09-11T08:58:34.437Z,26.32
2022-09-11T09:01:00.805Z,26.33
2022-09-11T09:03:27.123Z,26.34
2022-09-11T09:05:53.462Z,26.35
2022-09-11T09:08:19.819Z,26.31
2022-09-11T09:10:46.154Z,26.31
2022-09-11T09:13:12.538Z,26.29
2022-09-11T09:15:38.940Z,26.30
2022-09-11T09:18:05.234Z,26.28
2022-09-11T09:20:32.765Z,26.30
2022-09-11T09:22:57.927Z,26.31
2022-09-11T09:25:24.291Z,26.32
2022-09-11T09:27:50.641Z,26.36
2022-09-11T09:30:17.021Z,26.36
2022-09-11T09:32:43.353Z,26.39
2022-09-11T09:35:09.701Z,26.38
2022-09-11T09:37:36.050Z,26.38
2022-09-11T09:40:02.454Z,26.42
2022-09-11T09:42:28.731Z,26.43
2022-09-11T09:44:55.063Z,26.44
2022-09-11T09:47:21.417Z,26.44
2022-09-11T09:49:47.761Z,26.42
2022-09-11T09:52:14.125Z,26.45
2022-09-11T09:54:40.472Z,26.46
2022-09-11T09:57:06.818Z,26.48
2022-09-11T09:59:33.151Z,26.49
2022-09-11T10:01:59.565Z,26.48
2022-09-11T10:04:25.833Z,26.50
2022-09-11T10:06:52.201Z,26.49
2022-09-11T10:09:18.535Z,26.49
2022-09-11T10:11:44.941Z,26.53
2022-09-11T10:14:13.633Z,26.49
2022-09-11T10:16:37.656Z,26.48
2022-09-11T10:19:04.466Z,26.49
2022-09-11T10:21:30.807Z,26.51
2022-09-11T10:23:57.147Z,26.51
2022-09-11T10:26:23.491Z,26.53
2022-09-11T10:28:49.850Z,26.54
2022-09-11T10:31:16.233Z,26.54
2022-09-11T10:33:42.573Z,26.55
2022-09-11T10:36:08.909Z,26.57
2022-09-11T10:38:38.099Z,26.59
2022-09-11T10:41:01.598Z,26.60
2022-09-11T10:43:27.948Z,26.60
2022-09-11T10:45:54.321Z,26.62
2022-09-11T10:48:20.639Z,26.61
2022-09-11T10:50:46.983Z,26.63
2022-09-11T10:53:13.337Z,26.63
2022-09-11T10:55:39.684Z,26.67
2022-09-11T10:58:06.032Z,26.64
2022-09-11T11:00:32.380Z,26.67
2022-09-11T11:02:58.728Z,26.67
2022-09-11T11:05:25.106Z,26.62
2022-09-11T11:07:51.453Z,26.57
2022-09-11T11:10:17.823Z,26.57
2022-09-11T11:12:44.170Z,26.57
2022-09-11T11:15:10.507Z,26.57
2022-09-11T11:17:36.854Z,26.57
2022-09-11T11:20:03.196Z,26.58
2022-09-11T11:22:29.548Z,26.60
2022-09-11T11:24:56.809Z,26.58
2022-09-11T11:27:23.155Z,26.60
2022-09-11T11:29:49.505Z,26.64
2022-09-11T11:32:15.876Z,26.61
2022-09-11T11:34:42.217Z,26.64
2022-09-11T11:37:08.558Z,26.66
2022-09-11T11:39:34.908Z,26.68
2022-09-11T11:42:01.255Z,26.68
2022-09-11T11:44:27.628Z,26.70
2022-09-11T11:46:53.979Z,26.73
2022-09-11T11:49:20.323Z,26.72
2022-09-11T11:51:46.719Z,26.73
2022-09-11T11:54:13.060Z,26.75
2022-09-11T11:56:39.413Z,26.72
2022-09-11T11:59:05.749Z,26.74
2022-09-11T12:01:32.186Z,26.74
2022-09-11T12:03:58.503Z,26.72
2022-09-11T12:06:24.821Z,26.68
2022-09-11T12:08:51.166Z,26.64
2022-09-11T12:11:17.518Z,26.61
2022-09-11T12:13:45.061Z,26.60
2022-09-11T12:16:11.500Z,26.57
2022-09-11T12:18:36.538Z,26.54
2022-09-11T12:21:02.895Z,26.49
2022-09-11T12:23:29.231Z,26.50
2022-09-11T12:25:55.581Z,26.52
2022-09-11T12:28:21.916Z,26.52
2022-09-11T12:30:48.296Z,26.55
2022-09-11T12:33:14.648Z,26.54
2022-09-11T12:35:40.994Z,26.53
2022-09-11T12:38:07.340Z,26.60
2022-09-11T12:40:33.685Z,26.47
2022-09-11T12:43:00.051Z,26.41
2022-09-11T12:45:26.427Z,26.48
2022-09-11T12:47:52.747Z,26.49
2022-09-11T12:50:21.259Z,26.53
2022-09-11T12:52:47.641Z,26.55
2022-09-11T12:55:13.984Z,26.60
2022-09-11T12:57:40.328Z,26.61
2022-09-11T13:00:06.671Z,26.72
2022-09-11T13:02:33.098Z,27.53
2022-09-11T13:05:01.769Z,27.92
2022-09-11T13:07:28.112Z,27.33
2022-09-11T13:09:54.462Z,27.79
2022-09-11T13:12:20.813Z,27.90
2022-09-11T13:14:47.159Z,28.07
2022-09-11T13:17:13.505Z,27.34
2022-09-11T13:19:39.853Z,28.02
2022-09-11T13:22:06.200Z,28.14
2022-09-11T13:24:32.553Z,28.15
2022-09-11T13:26:58.938Z,28.06
2022-09-11T13:29:25.238Z,27.39
2022-09-11T13:31:51.574Z,27.92
2022-09-11T13:34:17.920Z,27.96
2022-09-11T13:36:44.255Z,28.00
2022-09-11T13:39:10.603Z,28.01
2022-09-11T13:41:36.935Z,27.65
2022-09-11T13:44:03.284Z,26.92
2022-09-11T13:46:29.621Z,26.77
2022-09-11T13:48:55.960Z,26.60
2022-09-11T13:51:22.297Z,26.48
2022-09-11T13:53:48.644Z,26.44
2022-09-11T13:56:14.987Z,27.08
2022-09-11T13:58:41.335Z,26.50
2022-09-11T14:01:07.671Z,26.34
2022-09-11T14:03:35.211Z,26.33
2022-09-11T14:06:00.366Z,26.24
2022-09-11T14:08:26.705Z,26.52
2022-09-11T14:10:53.042Z,26.58
2022-09-11T14:13:19.384Z,26.65
2022-09-11T14:15:45.738Z,26.57
2022-09-11T14:18:12.070Z,26.79
2022-09-11T14:20:38.445Z,26.86
2022-09-11T14:23:04.792Z,26.99
2022-09-11T14:25:31.128Z,26.68
2022-09-11T14:27:57.481Z,26.56
2022-09-11T14:30:23.825Z,26.50
2022-09-11T14:32:50.172Z,26.39
2022-09-11T14:35:16.517Z,26.38
2022-09-11T14:37:42.862Z,26.51
2022-09-11T14:40:09.231Z,26.69
2022-09-11T14:42:35.554Z,26.55
2022-09-11T14:45:01.896Z,26.30
2022-09-11T14:47:28.258Z,25.94
2022-09-11T14:49:54.610Z,25.86
2022-09-11T14:52:20.960Z,25.78
2022-09-11T14:54:47.296Z,25.71
2022-09-11T14:57:17.178Z,25.58
2022-09-11T14:59:39.986Z,25.56
2022-09-11T15:02:06.334Z,25.57
2022-09-11T15:04:32.748Z,25.61
2022-09-11T15:06:59.096Z,25.58
2022-09-11T15:09:25.439Z,25.69
2022-09-11T15:11:51.795Z,25.70
2022-09-11T15:14:38.110Z,25.83
2022-09-11T15:16:44.493Z,25.86
2022-09-11T15:19:10.846Z,25.89
2022-09-11T15:21:39.094Z,25.96
2022-09-11T15:24:05.431Z,26.05
2022-09-11T15:26:31.770Z,26.05
2022-09-11T15:28:58.112Z,26.07
2022-09-11T15:31:24.495Z,26.12
2022-09-11T15:33:50.802Z,26.10
2022-09-11T15:36:17.152Z,26.11
2022-09-11T15:38:43.497Z,26.13
2022-09-11T15:41:11.044Z,26.15
2022-09-11T15:43:36.178Z,26.17
2022-09-11T15:46:03.781Z,26.13
2022-09-11T15:48:30.086Z,26.13
2022-09-11T15:50:55.205Z,26.13
2022-09-11T15:53:21.549Z,26.13
2022-09-11T15:55:47.904Z,26.14
2022-09-11T15:58:14.273Z,26.15
2022-09-11T16:00:40.715Z,26.13
2022-09-11T16:03:06.997Z,26.14
2022-09-11T16:05:33.343Z,26.14
2022-09-11T16:07:59.682Z,26.13
2022-09-11T16:10:26.028Z,26.16
2022-09-11T16:12:55.540Z,26.16
2022-09-11T16:15:18.754Z,26.14
2022-09-11T16:17:45.098Z,26.15
2022-09-11T16:20:11.447Z,26.15
2022-09-11T16:22:37.783Z,26.10
2022-09-11T16:25:04.131Z,26.11
2022-09-11T16:27:30.466Z,26.08
2022-09-11T16:30:32.318Z,26.09
2022-09-11T16:32:23.177Z,26.07
2022-09-11T16:34:49.529Z,26.07
2022-09-11T16:37:15.894Z,26.06
2022-09-11T16:39:42.275Z,26.04
2022-09-11T16:42:08.588Z,26.05
2022-09-11T16:44:34.925Z,26.04
2022-09-11T16:47:01.260Z,26.05
2022-09-11T16:49:27.611Z,26.05
2022-09-11T16:51:53.959Z,26.03
2022-09-11T16:54:20.300Z,26.07
2022-09-11T16:56:46.640Z,26.05
2022-09-11T16:59:13.004Z,26.03
2022-09-11T17:01:39.370Z,26.03
2022-09-11T17:04:05.684Z,26.03
2022-09-11T17:06:32.030Z,26.02
2022-09-11T17:08:58.374Z,26.02
2022-09-11T17:11:24.711Z,26.03
2022-09-11T17:13:51.073Z,26.02
2022-09-11T17:16:17.463Z,26.00
2022-09-11T17:18:43.940Z,26.02
2022-09-11T17:21:10.124Z,26.01
2022-09-11T17:23:36.750Z,26.01
2022-09-11T17:26:03.063Z,26.00
2022-09-11T17:28:29.408Z,26.01
2022-09-11T17:30:55.748Z,26.01
2022-09-11T17:33:22.139Z,25.98
2022-09-11T17:35:48.475Z,25.97
2022-09-11T17:38:14.829Z,25.96
2022-09-11T17:40:41.173Z,25.98
2022-09-11T17:45:47.845Z,25.95
2022-09-11T17:48:14.188Z,25.98
2022-09-11T17:50:40.532Z,25.96
2022-09-11T17:53:06.879Z,25.97
2022-09-11T17:55:33.228Z,25.94
2022-09-11T17:57:59.579Z,25.96
2022-09-11T18:00:25.929Z,25.96
2022-09-11T18:02:52.342Z,25.99
2022-09-11T18:05:18.636Z,25.97
2022-09-11T18:07:44.983Z,26.02
2022-09-11T18:10:11.342Z,25.97
2022-09-11T18:12:37.678Z,25.97
2022-09-11T18:15:04.033Z,25.98
2022-09-11T18:17:30.374Z,25.99
2022-09-11T18:19:56.731Z,25.99
2022-09-11T18:22:23.104Z,26.01
2022-09-11T18:24:49.805Z,25.99
2022-09-11T18:27:15.800Z,25.95
2022-09-11T18:29:42.154Z,25.98
2022-09-11T18:32:10.170Z,25.94
2022-09-11T18:34:34.844Z,25.97
2022-09-11T18:37:01.177Z,25.97
2022-09-11T18:39:27.523Z,25.93
2022-09-11T18:41:53.868Z,25.96
2022-09-11T18:44:20.342Z,25.97
2022-09-11T18:46:46.596Z,25.99
2022-09-11T18:49:12.923Z,25.96
2022-09-11T18:51:39.281Z,25.98
2022-09-11T18:54:05.614Z,25.98
2022-09-11T18:56:31.956Z,26.00
2022-09-11T18:59:00.086Z,26.00
2022-09-11T19:01:24.798Z,26.00
2022-09-11T19:03:51.022Z,26.01
2022-09-11T19:06:17.373Z,25.99
2022-09-11T19:08:43.727Z,26.01
2022-09-11T19:11:10.078Z,26.00
2022-09-11T19:13:36.428Z,26.02
2022-09-11T19:16:02.829Z,26.02
2022-09-11T19:18:29.147Z,26.02
2022-09-11T19:20:55.502Z,26.01
2022-09-11T19:23:21.854Z,26.00
2022-09-11T19:25:48.198Z,26.01
2022-09-11T19:28:14.544Z,26.00
2022-09-11T19:30:43.151Z,26.02
2022-09-11T19:33:07.227Z,26.01
2022-09-11T19:35:33.569Z,25.84
2022-09-11T19:38:00.407Z,26.01
2022-09-11T19:40:26.280Z,26.02
2022-09-11T19:42:52.638Z,26.02
2022-09-11T19:45:18.980Z,26.05
2022-09-11T19:47:45.334Z,26.04
2022-09-11T19:50:11.694Z,26.03
2022-09-11T19:52:38.052Z,26.03
2022-09-11T19:55:04.397Z,26.02
2022-09-11T19:57:30.745Z,26.02
2022-09-11T19:59:57.090Z,26.02
2022-09-11T20:02:23.484Z,26.03
2022-09-11T20:04:49.816Z,26.04
2022-09-11T20:07:16.196Z,26.03
2022-09-11T20:09:42.552Z,26.02
2022-09-11T20:12:08.889Z,26.01
2022-09-11T20:14:38.339Z,26.04
2022-09-11T20:17:01.638Z,26.01
2022-09-11T20:19:28.010Z,26.02
2022-09-11T20:21:54.358Z,26.03
2022-09-11T20:24:20.702Z,26.02
2022-09-11T20:26:47.059Z,26.01
2022-09-11T20:29:13.421Z,26.01
2022-09-11T20:31:46.960Z,26.00
2022-09-11T20:34:06.158Z,26.00
2022-09-11T20:36:32.516Z,26.01
2022-09-11T20:39:00.093Z,26.03
2022-09-11T20:41:25.259Z,26.01
2022-09-11T20:43:51.609Z,26.00
2022-09-11T20:46:17.978Z,26.00
2022-09-11T20:48:44.353Z,26.00
2022-09-11T20:51:10.717Z,25.99
2022-09-11T20:53:37.103Z,25.98
2022-09-11T20:56:03.448Z,25.97
2022-09-11T20:58:29.816Z,25.99
2022-09-11T21:00:56.196Z,25.97
2022-09-11T21:03:22.537Z,25.97
2022-09-11T21:05:48.899Z,26.00
2022-09-11T21:08:15.292Z,26.01
2022-09-11T21:10:41.633Z,26.01
2022-09-11T21:13:08.016Z,26.00
2022-09-11T21:15:34.350Z,26.01
2022-09-11T21:18:02.688Z,25.99
2022-09-11T21:20:27.081Z,25.97
2022-09-11T21:22:53.431Z,25.96
2022-09-11T21:25:19.820Z,25.97
2022-09-11T21:27:46.177Z,25.95
2022-09-11T21:30:12.525Z,25.96
2022-09-11T21:32:38.909Z,25.95
2022-09-11T21:35:05.217Z,25.94
2022-09-11T21:37:31.568Z,25.93
2022-09-11T21:39:57.921Z,25.94
2022-09-11T21:42:24.257Z,25.93
2022-09-11T21:44:50.610Z,25.91
2022-09-11T21:47:18.744Z,25.92
2022-09-11T21:49:43.323Z,25.93
2022-09-11T21:52:09.717Z,25.92
2022-09-11T21:54:36.057Z,25.92
2022-09-11T21:57:02.414Z,25.92
2022-09-11T21:59:28.783Z,25.92
2022-09-11T22:01:55.228Z,25.92
2022-09-11T22:04:21.530Z,25.91
2022-09-11T22:06:47.913Z,25.90
2022-09-11T22:09:14.288Z,25.90
2022-09-11T22:11:40.676Z,25.90
2022-09-11T22:14:07.068Z,25.91
2022-09-11T22:16:33.488Z,25.90
2022-09-11T22:18:59.910Z,25.90
2022-09-11T22:21:26.273Z,25.90
2022-09-11T22:23:52.635Z,25.91
2022-09-11T22:26:19.038Z,25.90
2022-09-11T22:28:45.453Z,25.90
2022-09-11T22:31:11.843Z,25.90
2022-09-11T22:33:38.195Z,25.88
2022-09-11T22:36:04.603Z,25.87
2022-09-11T22:38:30.975Z,25.88
2022-09-11T22:40:57.337Z,25.88
2022-09-11T22:43:23.701Z,25.88
2022-09-11T22:45:50.104Z,25.88
2022-09-11T22:48:16.450Z,25.87
2022-09-11T22:50:42.857Z,25.87
2022-09-11T22:53:09.289Z,25.88
2022-09-11T22:55:35.656Z,25.87
2022-09-11T22:58:02.031Z,25.87
2022-09-11T23:00:28.419Z,25.87
2022-09-11T23:02:54.800Z,25.87
2022-09-11T23:05:21.187Z,25.88
2022-09-11T23:07:47.549Z,25.87
2022-09-11T23:10:13.932Z,25.87
2022-09-11T23:12:40.347Z,25.86
2022-09-11T23:15:06.762Z,25.86
2022-09-11T23:17:33.143Z,25.87
2022-09-11T23:19:59.546Z,25.86
2022-09-11T23:22:25.907Z,25.86
2022-09-11T23:24:52.304Z,25.86
2022-09-11T23:27:18.664Z,25.85
2022-09-11T23:29:45.056Z,25.86
2022-09-11T23:32:11.443Z,25.85
2022-09-11T23:34:37.823Z,25.85
2022-09-11T23:37:04.198Z,25.84
2022-09-11T23:39:30.587Z,25.84
2022-09-11T23:41:56.959Z,25.84
2022-09-11T23:44:23.343Z,25.84
2022-09-11T23:46:49.686Z,25.84
2022-09-11T23:49:16.063Z,25.83
2022-09-11T23:51:42.406Z,25.83
2022-09-11T23:54:08.795Z,25.83
2022-09-11T23:56:35.122Z,25.83
2022-09-11T23:59:01.465Z,25.83
